Huvudsida
METAR-TAF:

METAR-TAF

Flygplatser :

Indianapolis, Indiana, USA

latitud: 39-43-30N, longitud: 086-16-55W, höjd: 243 m

Aktuellt väderrapport

Denna rapport gjordes för 8 minuter sedan, klockan 05:54 UTC
Vind 7 kt från ost
Temperatur 19°C
Fuktighet 64%
Tryck 1022 hPa
Sikt: 16.1 km
Klar himmel

METAR: KIND 240554Z 09007KT 10SM CLR 19/12 A3017 RMK AO2 SLP212 T01940117 10261 20194 50002 $

Tid: 02:02 (06:02 UTC)

Väderprognos

Denna rapport gjordes för 37 minuter sedan, klockan 05:25 UTC
Prognos gäller från 24 kl. 06 UTC till 25 kl. 12 UTC
Vind 3 kt varierande vindriktning
Sikt: 10 km
Få moln på en höjd av 25000 ft

TAF: KIND 240525Z 2406/2512 VRB03KT P6SM FEW250

Aktuella väderrapporter och prognoser från 4000 flygplatser (METAR- och TAF-rapporter).

De tillgängliga stationerna syns som gula och röda prickar på kartan.

För musen över prickarna för att se namnen på stationerna.

Klicka sedan för att få väderrapporter och prognoser.

För att ändra kartan: Klicka på de gröna knapparna med ett svart kors på för att zooma in; den gröna knappen med ett streck på för att zooma ut; eller på de gröna pilarna för angränsande kartor.


METAR-TAF: